Ubirata, Brazil
Current Conditions -  °F | °C
As of 1:00 PM on Friday 19 Dec 2014 (Local Time) from SBCA Reporting Station
Rain Showers Rain Showers  
Wind Chill: 77°   Ceiling: 3000
Heat Index: 79°   Visibility: 5mi
Dew Point: 64°   Wind: 12mph
Humidity: 65%   Direction: 320°NW
Pressure: 29.88"   Gusts: NA
Location:  24.55°S, 52.99°W
Report Text: SBCA 191500Z 32010KT 8000 SHRA BKN030 BKN090 25/18 Q1012
Loading
Personal Weather Stations






























Interactive Weather Map New forecast layout! Learn more

10-Day Weather Forecast

Advertisements
Track Severe Weather on mobile